sensor_id;sensor_type;location;lat;lon;timestamp;P1;durP1;ratioP1;P2;durP2;ratioP2
928;SDS011;451;47.988;7.842;2022-07-18T00:00:36;5.43;;;4.20;;
928;SDS011;451;47.988;7.842;2022-07-18T00:09:38;5.10;;;4.47;;
928;SDS011;451;47.988;7.842;2022-07-18T00:18:41;5.60;;;5.10;;
928;SDS011;451;47.988;7.842;2022-07-18T00:27:43;5.20;;;4.80;;
928;SDS011;451;47.988;7.842;2022-07-18T00:36:44;5.70;;;5.30;;
928;SDS011;451;47.988;7.842;2022-07-18T00:45:46;5.50;;;4.97;;
928;SDS011;451;47.988;7.842;2022-07-18T00:54:49;5.37;;;4.87;;
928;SDS011;451;47.988;7.842;2022-07-18T01:03:51;5.50;;;5.00;;
928;SDS011;451;47.988;7.842;2022-07-18T01:12:53;5.07;;;4.67;;
928;SDS011;451;47.988;7.842;2022-07-18T01:21:55;5.73;;;5.23;;
928;SDS011;451;47.988;7.842;2022-07-18T01:30:56;5.40;;;4.90;;
928;SDS011;451;47.988;7.842;2022-07-18T01:39:58;4.60;;;4.20;;
928;SDS011;451;47.988;7.842;2022-07-18T01:48:59;4.80;;;4.40;;
928;SDS011;451;47.988;7.842;2022-07-18T01:58:01;5.17;;;4.70;;
928;SDS011;451;47.988;7.842;2022-07-18T02:07:04;4.57;;;4.27;;
928;SDS011;451;47.988;7.842;2022-07-18T02:16:05;4.70;;;4.30;;
928;SDS011;451;47.988;7.842;2022-07-18T02:25:09;4.77;;;4.27;;
928;SDS011;451;47.988;7.842;2022-07-18T02:34:12;5.33;;;4.83;;
928;SDS011;451;47.988;7.842;2022-07-18T02:43:14;5.20;;;4.80;;
928;SDS011;451;47.988;7.842;2022-07-18T02:52:15;5.53;;;5.10;;
928;SDS011;451;47.988;7.842;2022-07-18T03:01:17;5.47;;;5.00;;
928;SDS011;451;47.988;7.842;2022-07-18T03:10:19;5.43;;;5.03;;
928;SDS011;451;47.988;7.842;2022-07-18T03:19:22;6.57;;;5.80;;
928;SDS011;451;47.988;7.842;2022-07-18T03:28:24;7.07;;;5.03;;
928;SDS011;451;47.988;7.842;2022-07-18T03:37:27;5.80;;;5.30;;
928;SDS011;451;47.988;7.842;2022-07-18T03:46:29;5.17;;;4.77;;
928;SDS011;451;47.988;7.842;2022-07-18T03:55:32;5.03;;;4.63;;
928;SDS011;451;47.988;7.842;2022-07-18T04:04:35;5.83;;;5.00;;
928;SDS011;451;47.988;7.842;2022-07-18T04:13:37;5.70;;;5.30;;
928;SDS011;451;47.988;7.842;2022-07-18T04:22:53;5.70;;;5.20;;
928;SDS011;451;47.988;7.842;2022-07-18T04:31:58;5.40;;;4.90;;
928;SDS011;451;47.988;7.842;2022-07-18T04:41:00;6.20;;;5.60;;
928;SDS011;451;47.988;7.842;2022-07-18T04:50:03;8.60;;;6.40;;
928;SDS011;451;47.988;7.842;2022-07-18T04:59:06;5.47;;;4.97;;
928;SDS011;451;47.988;7.842;2022-07-18T05:08:09;6.23;;;5.63;;
928;SDS011;451;47.988;7.842;2022-07-18T05:17:14;6.83;;;5.37;;
928;SDS011;451;47.988;7.842;2022-07-18T05:26:16;6.30;;;5.70;;
928;SDS011;451;47.988;7.842;2022-07-18T05:35:19;5.77;;;5.20;;
928;SDS011;451;47.988;7.842;2022-07-18T05:44:21;6.33;;;5.30;;
928;SDS011;451;47.988;7.842;2022-07-18T05:53:23;6.33;;;5.33;;
928;SDS011;451;47.988;7.842;2022-07-18T06:02:26;5.70;;;5.20;;
928;SDS011;451;47.988;7.842;2022-07-18T06:11:29;6.17;;;5.57;;
928;SDS011;451;47.988;7.842;2022-07-18T06:20:31;8.43;;;5.90;;
928;SDS011;451;47.988;7.842;2022-07-18T06:29:33;7.70;;;6.87;;
928;SDS011;451;47.988;7.842;2022-07-18T06:38:35;7.77;;;5.70;;
928;SDS011;451;47.988;7.842;2022-07-18T06:47:38;7.03;;;5.00;;
928;SDS011;451;47.988;7.842;2022-07-18T06:56:41;4.90;;;4.20;;
928;SDS011;451;47.988;7.842;2022-07-18T07:05:43;6.40;;;5.63;;
928;SDS011;451;47.988;7.842;2022-07-18T07:14:46;6.53;;;5.93;;
928;SDS011;451;47.988;7.842;2022-07-18T07:23:49;6.53;;;5.57;;
928;SDS011;451;47.988;7.842;2022-07-18T07:32:51;7.83;;;5.50;;
928;SDS011;451;47.988;7.842;2022-07-18T07:41:53;6.70;;;5.30;;
928;SDS011;451;47.988;7.842;2022-07-18T07:50:55;6.33;;;5.73;;
928;SDS011;451;47.988;7.842;2022-07-18T07:59:56;6.10;;;5.50;;
928;SDS011;451;47.988;7.842;2022-07-18T08:09:13;5.20;;;4.70;;
928;SDS011;451;47.988;7.842;2022-07-18T08:18:14;6.77;;;4.53;;
928;SDS011;451;47.988;7.842;2022-07-18T08:27:16;6.10;;;5.60;;
928;SDS011;451;47.988;7.842;2022-07-18T08:36:18;6.80;;;5.17;;
928;SDS011;451;47.988;7.842;2022-07-18T08:45:22;7.03;;;4.87;;
928;SDS011;451;47.988;7.842;2022-07-18T08:54:25;5.47;;;4.97;;
928;SDS011;451;47.988;7.842;2022-07-18T09:03:27;6.45;;;4.70;;
928;SDS011;451;47.988;7.842;2022-07-18T09:12:29;8.70;;;4.77;;
928;SDS011;451;47.988;7.842;2022-07-18T09:21:35;6.43;;;5.70;;
928;SDS011;451;47.988;7.842;2022-07-18T09:30:37;5.73;;;4.97;;
928;SDS011;451;47.988;7.842;2022-07-18T09:39:39;5.63;;;5.13;;
928;SDS011;451;47.988;7.842;2022-07-18T09:48:41;4.93;;;4.53;;
928;SDS011;451;47.988;7.842;2022-07-18T09:57:43;5.50;;;4.97;;
928;SDS011;451;47.988;7.842;2022-07-18T10:06:45;6.10;;;5.50;;
928;SDS011;451;47.988;7.842;2022-07-18T10:15:47;5.67;;;5.17;;
928;SDS011;451;47.988;7.842;2022-07-18T10:24:51;5.07;;;4.57;;
928;SDS011;451;47.988;7.842;2022-07-18T10:33:54;6.27;;;5.77;;
928;SDS011;451;47.988;7.842;2022-07-18T11:01:36;5.97;;;4.93;;
928;SDS011;451;47.988;7.842;2022-07-18T11:29:40;7.10;;;5.37;;
928;SDS011;451;47.988;7.842;2022-07-18T11:38:47;5.87;;;5.27;;
928;SDS011;451;47.988;7.842;2022-07-18T11:47:55;6.27;;;5.40;;
928;SDS011;451;47.988;7.842;2022-07-18T11:56:56;5.90;;;5.10;;
928;SDS011;451;47.988;7.842;2022-07-18T12:06:09;5.93;;;5.00;;
928;SDS011;451;47.988;7.842;2022-07-18T12:15:13;16.20;;;6.50;;
928;SDS011;451;47.988;7.842;2022-07-18T12:33:31;7.20;;;5.03;;
928;SDS011;451;47.988;7.842;2022-07-18T12:42:34;5.30;;;4.90;;
928;SDS011;451;47.988;7.842;2022-07-18T12:51:37;5.77;;;5.13;;
928;SDS011;451;47.988;7.842;2022-07-18T13:00:39;4.93;;;4.53;;
928;SDS011;451;47.988;7.842;2022-07-18T13:09:41;5.00;;;4.60;;
928;SDS011;451;47.988;7.842;2022-07-18T13:18:42;5.57;;;5.17;;
928;SDS011;451;47.988;7.842;2022-07-18T13:27:44;5.83;;;5.43;;
928;SDS011;451;47.988;7.842;2022-07-18T13:36:48;5.03;;;4.70;;
928;SDS011;451;47.988;7.842;2022-07-18T13:45:51;5.40;;;4.93;;
928;SDS011;451;47.988;7.842;2022-07-18T13:54:52;5.47;;;5.00;;
928;SDS011;451;47.988;7.842;2022-07-18T14:03:57;6.50;;;5.90;;
928;SDS011;451;47.988;7.842;2022-07-18T14:12:59;6.00;;;5.60;;
928;SDS011;451;47.988;7.842;2022-07-18T14:22:01;6.20;;;5.70;;
928;SDS011;451;47.988;7.842;2022-07-18T14:31:03;6.07;;;5.57;;
928;SDS011;451;47.988;7.842;2022-07-18T14:40:05;6.57;;;5.87;;
928;SDS011;451;47.988;7.842;2022-07-18T14:49:07;6.20;;;5.40;;
928;SDS011;451;47.988;7.842;2022-07-18T14:58:09;6.33;;;5.77;;
928;SDS011;451;47.988;7.842;2022-07-18T15:07:11;7.27;;;5.50;;
928;SDS011;451;47.988;7.842;2022-07-18T15:16:13;6.50;;;5.90;;
928;SDS011;451;47.988;7.842;2022-07-18T15:25:15;7.17;;;6.60;;
928;SDS011;451;47.988;7.842;2022-07-18T15:34:16;7.97;;;7.33;;
928;SDS011;451;47.988;7.842;2022-07-18T15:43:18;8.77;;;8.07;;
928;SDS011;451;47.988;7.842;2022-07-18T15:52:20;8.67;;;7.87;;
928;SDS011;451;47.988;7.842;2022-07-18T16:01:21;9.80;;;8.20;;
928;SDS011;451;47.988;7.842;2022-07-18T16:10:23;10.20;;;7.97;;
928;SDS011;451;47.988;7.842;2022-07-18T16:19:25;9.43;;;8.40;;
928;SDS011;451;47.988;7.842;2022-07-18T16:28:27;9.10;;;7.70;;
928;SDS011;451;47.988;7.842;2022-07-18T16:37:31;7.57;;;6.87;;
928;SDS011;451;47.988;7.842;2022-07-18T16:46:33;10.40;;;7.03;;
928;SDS011;451;47.988;7.842;2022-07-18T16:55:39;7.67;;;5.97;;
928;SDS011;451;47.988;7.842;2022-07-18T17:04:41;11.00;;;5.97;;
928;SDS011;451;47.988;7.842;2022-07-18T17:13:44;6.10;;;5.03;;
928;SDS011;451;47.988;7.842;2022-07-18T17:22:46;7.50;;;4.97;;
928;SDS011;451;47.988;7.842;2022-07-18T17:31:49;5.63;;;5.10;;
928;SDS011;451;47.988;7.842;2022-07-18T17:40:51;7.50;;;5.80;;
928;SDS011;451;47.988;7.842;2022-07-18T17:49:52;8.53;;;6.07;;
928;SDS011;451;47.988;7.842;2022-07-18T17:58:54;11.07;;;5.70;;
928;SDS011;451;47.988;7.842;2022-07-18T18:07:56;6.30;;;4.70;;
928;SDS011;451;47.988;7.842;2022-07-18T18:16:58;6.50;;;5.27;;
928;SDS011;451;47.988;7.842;2022-07-18T18:26:02;5.93;;;5.43;;
928;SDS011;451;47.988;7.842;2022-07-18T18:35:06;5.73;;;5.20;;
928;SDS011;451;47.988;7.842;2022-07-18T18:44:09;6.40;;;5.57;;
928;SDS011;451;47.988;7.842;2022-07-18T18:53:11;5.67;;;5.20;;
928;SDS011;451;47.988;7.842;2022-07-18T19:02:13;6.67;;;5.97;;
928;SDS011;451;47.988;7.842;2022-07-18T19:11:15;6.50;;;5.83;;
928;SDS011;451;47.988;7.842;2022-07-18T19:20:17;6.10;;;5.40;;
928;SDS011;451;47.988;7.842;2022-07-18T19:29:19;6.20;;;5.70;;
928;SDS011;451;47.988;7.842;2022-07-18T19:38:21;7.13;;;6.53;;
928;SDS011;451;47.988;7.842;2022-07-18T19:47:23;7.43;;;5.50;;
928;SDS011;451;47.988;7.842;2022-07-18T19:56:24;7.60;;;6.80;;
928;SDS011;451;47.988;7.842;2022-07-18T20:05:26;7.57;;;6.60;;
928;SDS011;451;47.988;7.842;2022-07-18T20:14:29;14.10;;;8.90;;
928;SDS011;451;47.988;7.842;2022-07-18T20:23:32;8.37;;;7.63;;
928;SDS011;451;47.988;7.842;2022-07-18T20:32:34;7.80;;;7.10;;
928;SDS011;451;47.988;7.842;2022-07-18T20:41:36;9.03;;;8.23;;
928;SDS011;451;47.988;7.842;2022-07-18T20:50:38;8.57;;;7.20;;
928;SDS011;451;47.988;7.842;2022-07-18T20:59:40;8.90;;;7.93;;
928;SDS011;451;47.988;7.842;2022-07-18T21:08:42;8.73;;;7.33;;
928;SDS011;451;47.988;7.842;2022-07-18T21:17:45;9.47;;;7.23;;
928;SDS011;451;47.988;7.842;2022-07-18T21:26:50;8.53;;;7.73;;
928;SDS011;451;47.988;7.842;2022-07-18T21:35:52;10.67;;;8.23;;
928;SDS011;451;47.988;7.842;2022-07-18T21:44:55;7.80;;;7.10;;
928;SDS011;451;47.988;7.842;2022-07-18T21:53:58;7.87;;;7.17;;
928;SDS011;451;47.988;7.842;2022-07-18T22:03:00;7.80;;;6.73;;
928;SDS011;451;47.988;7.842;2022-07-18T22:12:02;7.77;;;6.97;;
928;SDS011;451;47.988;7.842;2022-07-18T22:21:04;12.03;;;7.53;;
928;SDS011;451;47.988;7.842;2022-07-18T22:30:09;8.00;;;7.20;;
928;SDS011;451;47.988;7.842;2022-07-18T22:48:28;7.47;;;6.87;;
928;SDS011;451;47.988;7.842;2022-07-18T22:57:30;7.30;;;6.47;;
928;SDS011;451;47.988;7.842;2022-07-18T23:06:32;7.10;;;6.50;;
928;SDS011;451;47.988;7.842;2022-07-18T23:15:34;6.90;;;6.00;;
928;SDS011;451;47.988;7.842;2022-07-18T23:24:38;8.63;;;6.10;;
928;SDS011;451;47.988;7.842;2022-07-18T23:33:40;6.20;;;5.70;;
928;SDS011;451;47.988;7.842;2022-07-18T23:42:42;6.00;;;5.50;;
928;SDS011;451;47.988;7.842;2022-07-18T23:51:45;6.37;;;5.53;;
